Carson Valley, Nevada Weather observations

Data are for 10 minute period ending at time listed.
 Day   Time   Solar   Ave.   Ave.  Ave.  Vector  Max.   Baro.   Total    
  of    of     Rad.   Air    Rel.  Wind   Wind   Wind  Press.  Precip.   
Year   Day            Temp.  Hum.  Speed  Dir.   Gust                    
2015   (PST)  Kw/m2    F      %     mph   deg.    mph    mb.     in.     
-------------------------------------------------------------------------
  60   22:50   0.00   22.0    95    6.1   231     7.7   853.4    0.00 
  60   23:00   0.00   24.1    95    6.2   224     7.5   853.2    0.00 
  60   23:10   0.00   26.3    92    5.5   228     6.6   853.0    0.00 
  60   23:20   0.00   26.2    87    4.1   265     5.5   852.8    0.00 
  60   23:30   0.00   24.2    89    1.5   307     3.7   852.7    0.00 
  60   23:40   0.00   22.3    90    6.0    65     8.5   852.6    0.00 
  60   23:50   0.00   22.6    93    5.5    80     7.5   852.6    0.00 
  61    0:00   0.00   22.8    92    1.4    68     4.2   852.6    0.00 
  61    0:10   0.00   23.3    93    3.8    87    10.3   852.6    0.00 
  61    0:20   0.00   24.7    94    4.7   262     7.0   852.5    0.00 
  61    0:30   0.00   24.6    92    3.2   278     5.6   852.3    0.00 
  61    0:40   0.00   25.3    92    1.2   264     3.8   852.2    0.00 
  61    0:50   0.00   23.8    91    0.6    22     1.8   852.1    0.00 
  61    1:00   0.00   23.3    92    1.0   348     2.0   852.0    0.00 
  61    1:10   0.00   23.1    93    1.3    60     2.2   851.7    0.00 
  61    1:20   0.00   22.2    93    1.9   304     4.8   851.5    0.00 
  61    1:30   0.00   19.9    93    1.5    73     3.2   851.4    0.00 
  61    1:40   0.00   21.9    98    1.8    92     3.3   851.3    0.00 
  61    1:50   0.00   22.8    97    3.5    88     4.8   851.1    0.00 
  61    2:00   0.00   20.4    95    1.3   320     4.1   851.0    0.00 
  61    2:10   0.00   21.2    98    1.3    37     2.9   850.8    0.00 
  61    2:20   0.00   21.3    96    2.6   106     4.0   850.7    0.00 
  61    2:30   0.00   20.1    94    4.0   141     5.3   850.6    0.00 
  61    2:40   0.00   18.9    93    2.8   197     4.0   850.5    0.00 
  61    2:50   0.00   20.7    97    2.6   201     3.5   850.4    0.00 
  61    3:00   0.00   20.7    94    1.9   279     2.7   850.3    0.00 
  61    3:10   0.00   19.6    94    1.5    24     3.8   850.1    0.00 
  61    3:20   0.00   18.9    94    2.8    76     3.7   849.9    0.00 
  61    3:30   0.00   16.1    91    2.5   183     4.8   849.8    0.00 
  61    3:40   0.00   16.5    92    1.6   305     3.6   849.7    0.00 
  61    3:50   100.00  99999.0   99999  99999.0   99999   99999.0   99999.0   99999.00 
  61    4:00   100.00  99999.0   99999  99999.0   99999   99999.0   99999.0   99999.00 
  61    4:10   100.00  99999.0   99999  99999.0   99999   99999.0   99999.0   99999.00 
  61    4:20   100.00  99999.0   99999  99999.0   99999   99999.0   99999.0   99999.00 
  61    4:30   100.00  99999.0   99999  99999.0   99999   99999.0   99999.0   99999.00 
  61    4:40   100.00  99999.0   99999  99999.0   99999   99999.0   99999.0   99999.00 
  61    4:50   0.00   18.5    94    3.1    18     4.4   849.2    0.00 
  61    5:00   0.00   19.4    94    2.0   336     4.9   849.1    0.00 
  61    5:10   0.00   20.1    93    0.7    33     2.1   849.1    0.00 
  61    5:20   0.00   19.6    93    2.3   192     4.6   849.0    0.00 
  61    5:30   0.00   20.7    96    2.9   176     5.4   849.0    0.00 
  61    5:40   0.00   21.4    94    3.5   217     6.5   849.0    0.00 
  61    5:50   0.00   20.9    93    2.2   191     4.3   849.0    0.00 
  61    6:00   0.00   21.2    95    1.9   118     2.9   849.0    0.00 
  61    6:10   0.00   21.2    94    1.4   102     2.7   849.0    0.00 
  61    6:20   0.00   20.5    94    2.4    53     3.9   848.9    0.00 
  61    6:30   0.00   21.0    95    1.8    83     3.7   848.9    0.00 
  61    6:40   0.00   21.4    94    1.1   258     3.0   848.9    0.00 
  61    6:50   0.01   21.9    94    2.5   196     3.8   848.9    0.00 
  61    7:00   0.02   22.6    96    4.1   176     6.3   849.0    0.00 
  61    7:10   0.03   23.1    97    0.8   214     4.1   848.9    0.00 
  61    7:20   0.05   23.5    97    2.2   177     3.4   848.9    0.00 
  61    7:30   0.06   24.4    98    1.4    42     2.6   849.0    0.00 
  61    7:40   0.07   25.2    99    0.6   325     1.6   849.1    0.00 
  61    7:50   0.09   25.8    99    1.5   280     3.1   849.0    0.00 
  61    8:00   0.09   26.0    99    1.3   311     2.6   849.1    0.00 
  61    8:10   0.10   26.5    99    0.2    31     1.5   849.0    0.00 
  61    8:20   0.10   26.7    98    1.9    15     2.8   849.0    0.00 
  61    8:30   0.17   27.4    98    1.5    26     2.6   849.1    0.00 
  61    8:40   0.35   29.4    99    0.6   172     2.5   849.1    0.00 
  61    8:50   0.45   31.2    94    1.3   189     3.2   849.0    0.00 
  61    9:00   0.49   32.2    86    2.3   149     5.6   849.0    0.00 
  61    9:10   0.54   33.9    80    1.3   156     3.9   849.1    0.00 
  61    9:20   0.54   35.8    74    1.1    18     2.5   849.0    0.00 
  61    9:30   0.57   35.5    75    1.4   346     3.3   848.9    0.00 
  61    9:40   0.63   35.7    73    2.7   354     5.0   848.9    0.00 
  61    9:50   0.54   36.1    71    2.4   352     5.4   848.7    0.00 
  61   10:00   0.70   36.8    68    2.4   357     5.4   848.5    0.00 
  61   10:10   0.72   39.2    60    2.3    44     6.1   848.4    0.00 
  61   10:20   0.41   38.8    58    1.6    33     4.5   848.4    0.00 
  61   10:30   0.52   39.7    57    1.4   282     3.2   848.3    0.00 
  61   10:40   0.37   39.5    57    1.5   278     3.7   848.3    0.00 
  61   10:50   0.44   40.4    56    1.3   248     2.6   848.2    0.00 
  61   11:00   0.50   40.5    54    2.1   258     3.9   848.1    0.00 
  61   11:10   0.44   41.2    54    1.9   268     4.7   848.0    0.00 
  61   11:20   0.40   41.5    53    2.3   290     4.9   848.0    0.00 
  61   11:30   0.59   42.1    52    1.6   316     3.4   848.0    0.00 
  61   11:40   0.52   43.9    48    3.1   210     6.9   848.0    0.00 
  61   11:50   0.40   42.6    52    3.3   233     8.2   848.1    0.00 
  61   12:00   0.37   41.9    56    6.3   285    16.3   848.2    0.00 
  61   12:10   0.23   38.8    67    7.5   324    13.3   848.2    0.00 
  61   12:20   0.31   38.2    70    4.5   351     6.6   848.0    0.01 
  61   12:30   0.46   39.6    64    5.0    18     9.4   847.9    0.00 
  61   12:40   0.87   42.4    56    5.7    55     8.5   847.8    0.01 
  61   12:50   0.80   43.5    50    3.1    91     6.7   847.7    0.00 
  61   13:00   0.80   44.9    49    3.6   187     7.2   847.7    0.00 
  61   13:10   0.64   45.7    47    4.3   203     9.6   847.6    0.00 
  61   13:20   0.68   45.6    50    8.3   190    14.8   847.6    0.00 
  61   13:30   0.77   45.8    51    9.9   188    14.1   847.6    0.00 
  61   13:40   0.76   46.0    48    8.8   169    12.6   847.5    0.00 
  61   13:50   0.48   44.9    48    8.4   181    11.5   847.5    0.00 
  61   14:00   0.65   45.8    46    6.6   185    11.8   847.6    0.00 
  61   14:10   0.67   46.5    44    6.2   176    10.4   847.5    0.00 
  61   14:20   0.63   46.8    40    5.7   192    12.1   847.6    0.00 
  61   14:30   0.53   47.2    42    6.4   189    12.8   847.7    0.00 
  61   14:40   0.54   46.6    43    7.1   192    12.6   847.8    0.00 
  61   14:50   0.41   46.1    42    5.9   134    11.9   847.9    0.00 
  61   15:00   0.52   46.4    42    5.5   158    10.7   847.9    0.00 
  61   15:10   0.56   47.7    41    6.5   171    16.2   847.9    0.00 
  61   15:20   0.35   47.0    40    6.7   173    15.4   848.0    0.00 
  61   15:30   0.50   47.4    42    9.6   200    15.5   848.1    0.00 
  61   15:40   0.40   47.0    41   11.1   243    20.0   848.0    0.00 
  61   15:50   0.29   46.0    43   10.6   271    15.1   848.2    0.00 
  61   16:00   0.17   44.6    46    9.2   255    12.8   848.3    0.00 
  61   16:10   0.09   43.5    46    6.4   258    11.6   848.3    0.00 
  61   16:20   0.07   42.8    49    7.7   261    12.9   848.3    0.00 
  61   16:30   0.07   42.5    49   10.1   266    14.7   848.3    0.00 
  61   16:40   0.08   42.8    47    6.9   242    13.8   848.4    0.00 
  61   16:50   0.07   43.2    47    4.4   251    10.7   848.6    0.00 
  61   17:00   0.04   43.1    47    5.6   238    12.7   848.6    0.00 
  61   17:10   0.02   42.7    50    2.9   187     7.1   848.7    0.00 
  61   17:20   0.02   41.9    52    2.8   101     7.2   848.7    0.00 
  61   17:30   0.02   40.5    56    2.5    73     4.4   848.9    0.00 
  61   17:40   0.01   40.7    54    0.7   302     2.7   849.1    0.00 
  61   17:50   0.01   41.3    52    1.9    89     2.8   849.1    0.00 
  61   18:00   0.00   40.6    54    2.4   146     4.4   849.2    0.00 
  61   18:10   0.00   40.5    54    3.4   258     6.2   849.4    0.00 
  61   18:20   0.00   41.1    51    4.4   223    11.3   849.4    0.00 
  61   18:30   0.00   40.8    52    6.6   272    12.3   849.6    0.00 
  61   18:40   0.00   39.9    54    5.6   298     9.6   849.7    0.00 
  61   18:50   0.00   39.7    54    6.3   312     9.0   849.9    0.00 
  61   19:00   0.00   38.6    57    5.7   322     8.1   850.0    0.00 
  61   19:10   0.00   39.5    55    3.2   331     5.8   850.2    0.00 
  61   19:20   0.00   40.3    53    1.3   325     3.3   850.3    0.00 
  61   19:30   0.00   40.2    53    1.9   230     5.0   850.4    0.00 
  61   19:40   0.00   38.1    57    3.8   134     7.4   850.6    0.00 
  61   19:50   0.00   40.1    50    6.1   154    10.6   850.7    0.00 
  61   20:00   0.00   37.8    59    5.4   185     8.5   850.9    0.00 
  61   20:10   0.00   34.7    68    5.8   161     7.5   851.0    0.00 
  61   20:20   0.00   33.0    73    2.4    72     4.3   851.1    0.00 
  61   20:30   0.00   34.0    73    1.3   262     2.3   851.3    0.00 
  61   20:40   0.00   34.9    70    2.2   255     3.7   851.3    0.00 
  61   20:50   0.00   35.2    68    3.0   182     4.3   851.5    0.00 
  61   21:00   0.00   34.0    70    3.1   173     5.1   851.7    0.00 
  61   21:10   0.00   33.6    70    4.8   162     5.8   851.7    0.00 
  61   21:20   0.00   31.4    74    2.7   144     4.6   851.9    0.00 
  61   21:30   0.00   29.5    81    3.5   145     4.2   852.1    0.00 
  61   21:40   0.00   30.0    82    3.7    94     6.3   852.3    0.00 
  61   21:50   0.00   31.0    80    2.7    63     4.7   852.3    0.00 
  61   22:00   0.00   30.7    79    2.7   143     6.1   852.5    0.00 
  61   22:10   0.00   30.1    80    3.1    52     6.1   852.5    0.00 
  61   22:20   0.00   30.0    81    2.1     9     4.5   852.8    0.00 
  61   22:30   0.00   30.3    80    1.6    17     4.5   852.9    0.00 
  61   22:40   0.00   30.2    80    2.6    46     3.7   853.1    0.00 

Return to Carson Valley graphs page.


Western Regional Climate Center,wrcc@dri.edu